createdAt,value
2023-01-30T00:01:32.787Z,65.62
2023-01-30T00:04:00.373Z,65.62
2023-01-30T00:06:29.429Z,65.84
2023-01-30T00:08:58.942Z,66.31
2023-01-30T00:11:29.088Z,65.92
2023-01-30T00:13:56.238Z,65.40
2023-01-30T00:16:24.027Z,66.90
2023-01-30T00:18:52.156Z,67.98
2023-01-30T00:21:22.650Z,68.83
2023-01-30T00:23:51.450Z,68.68
2023-01-30T00:26:19.128Z,69.41
2023-01-30T00:28:47.261Z,69.12
2023-01-30T00:31:15.136Z,68.48
2023-01-30T00:33:43.920Z,68.02
2023-01-30T00:36:11.301Z,68.22
2023-01-30T00:38:38.199Z,68.08
2023-01-30T00:41:06.175Z,68.65
2023-01-30T00:43:52.264Z,68.04
2023-01-30T00:46:47.257Z,68.96
2023-01-30T00:49:15.658Z,69.06
2023-01-30T00:51:45.335Z,69.53
2023-01-30T00:54:14.914Z,70.65
2023-01-30T00:56:41.719Z,70.45
2023-01-30T00:59:08.659Z,70.13
2023-01-30T01:01:37.702Z,70.62
2023-01-30T01:04:07.052Z,70.49
2023-01-30T01:06:34.017Z,70.33
2023-01-30T01:09:01.014Z,69.89
2023-01-30T01:11:28.097Z,69.40
2023-01-30T01:14:02.003Z,69.78
2023-01-30T01:16:30.489Z,69.28
2023-01-30T01:18:59.287Z,69.73
2023-01-30T01:21:28.205Z,69.33
2023-01-30T01:24:00.245Z,68.80
2023-01-30T01:26:27.363Z,68.32
2023-01-30T01:28:58.782Z,67.98
2023-01-30T01:31:28.529Z,67.50
2023-01-30T01:33:58.231Z,67.99
2023-01-30T01:36:53.225Z,68.00
2023-01-30T01:39:15.577Z,69.56
2023-01-30T01:41:42.565Z,69.09
2023-01-30T01:44:11.396Z,69.00
2023-01-30T01:46:58.038Z,68.70
2023-01-30T01:49:29.919Z,67.57
2023-01-30T01:52:04.228Z,69.29
2023-01-30T01:54:58.854Z,68.22
2023-01-30T01:57:32.900Z,68.14
2023-01-30T02:00:07.162Z,68.47
2023-01-30T02:02:35.273Z,69.08
2023-01-30T02:05:03.157Z,69.16
2023-01-30T02:08:09.449Z,69.19
2023-01-30T02:10:54.340Z,70.78
2023-01-30T02:13:21.406Z,70.54
2023-01-30T02:15:50.378Z,70.80
2023-01-30T02:18:18.711Z,70.96
2023-01-30T02:21:19.969Z,71.37
2023-01-30T02:24:08.659Z,71.65
2023-01-30T02:27:06.349Z,73.72
2023-01-30T02:29:52.417Z,73.08
2023-01-30T02:32:46.888Z,72.76
2023-01-30T02:35:35.643Z,72.13
2023-01-30T02:38:24.605Z,71.88
2023-01-30T02:41:25.518Z,71.58
2023-01-30T02:44:11.919Z,71.77
2023-01-30T02:46:55.723Z,71.54
2023-01-30T02:49:32.435Z,70.98
2023-01-30T02:52:01.734Z,70.64
2023-01-30T02:54:28.672Z,70.89
2023-01-30T02:57:00.471Z,71.13
2023-01-30T02:59:28.413Z,70.60
2023-01-30T03:02:23.161Z,70.80
2023-01-30T03:05:12.353Z,70.71
2023-01-30T03:08:01.612Z,70.61
2023-01-30T03:10:28.555Z,70.06
2023-01-30T03:13:40.193Z,71.03
2023-01-30T03:16:11.412Z,71.03
2023-01-30T03:18:42.956Z,70.83
2023-01-30T03:21:12.645Z,71.10
2023-01-30T03:23:39.502Z,71.02
2023-01-30T03:26:11.410Z,70.82
2023-01-30T03:28:38.699Z,70.74
2023-01-30T03:31:06.109Z,70.41
2023-01-30T03:33:33.059Z,70.62
2023-01-30T03:35:59.910Z,70.85
2023-01-30T03:38:26.877Z,71.63
2023-01-30T03:40:53.912Z,71.63
2023-01-30T03:43:20.863Z,71.65
2023-01-30T03:45:48.008Z,71.12
2023-01-30T03:48:17.656Z,71.40
2023-01-30T03:50:44.548Z,72.62
2023-01-30T03:53:11.659Z,72.08
2023-01-30T03:55:42.061Z,71.82
2023-01-30T03:58:12.344Z,71.78
2023-01-30T04:00:39.245Z,71.92
2023-01-30T04:03:06.127Z,72.13
2023-01-30T04:05:35.756Z,72.31
2023-01-30T04:08:02.647Z,71.98
2023-01-30T04:10:29.949Z,71.49
2023-01-30T04:12:57.009Z,71.41
2023-01-30T04:15:24.904Z,71.70
2023-01-30T04:17:51.940Z,72.01
2023-01-30T04:20:20.616Z,72.70
2023-01-30T04:22:51.193Z,73.35
2023-01-30T04:25:19.471Z,72.80
2023-01-30T04:27:47.358Z,73.16
2023-01-30T04:30:14.463Z,73.01
2023-01-30T04:32:41.282Z,72.31
2023-01-30T04:35:11.307Z,72.73
2023-01-30T04:37:38.646Z,73.07
2023-01-30T04:40:06.965Z,73.06
2023-01-30T04:42:33.983Z,73.37
2023-01-30T04:45:01.772Z,73.36
2023-01-30T04:47:29.394Z,73.40
2023-01-30T04:49:59.805Z,73.87
2023-01-30T04:52:26.821Z,73.69
2023-01-30T04:54:53.794Z,73.53
2023-01-30T04:57:23.455Z,73.78
2023-01-30T04:59:51.200Z,73.40
2023-01-30T05:02:18.329Z,72.99
2023-01-30T05:04:45.512Z,72.78
2023-01-30T05:07:13.373Z,73.72
2023-01-30T05:09:41.052Z,73.09
2023-01-30T05:12:11.881Z,73.57
2023-01-30T05:14:42.238Z,73.04
2023-01-30T05:17:09.990Z,72.94
2023-01-30T05:19:38.147Z,73.38
2023-01-30T05:22:06.013Z,73.57
2023-01-30T05:24:32.942Z,72.99
2023-01-30T05:27:00.601Z,72.67
2023-01-30T05:29:30.556Z,73.01
2023-01-30T05:31:59.576Z,73.48
2023-01-30T05:34:29.210Z,73.11
2023-01-30T05:36:57.016Z,72.94
2023-01-30T05:39:24.862Z,73.09
2023-01-30T05:41:52.921Z,73.19
2023-01-30T05:44:21.213Z,74.16
2023-01-30T05:46:50.860Z,74.28
2023-01-30T05:49:18.756Z,74.17
2023-01-30T05:51:46.852Z,74.09
2023-01-30T05:54:15.686Z,73.58
2023-01-30T05:56:42.686Z,74.00
2023-01-30T05:59:12.112Z,73.80
2023-01-30T06:01:41.977Z,73.86
2023-01-30T06:04:09.869Z,73.99
2023-01-30T06:06:37.691Z,73.89
2023-01-30T06:09:07.271Z,74.38
2023-01-30T06:11:36.127Z,74.56
2023-01-30T06:14:03.074Z,74.60
2023-01-30T06:16:31.165Z,74.56
2023-01-30T06:18:58.616Z,74.63
2023-01-30T06:21:26.580Z,74.36
2023-01-30T06:23:54.609Z,74.04
2023-01-30T06:26:22.641Z,73.94
2023-01-30T06:28:50.500Z,73.71
2023-01-30T06:31:19.199Z,73.88
2023-01-30T06:33:47.161Z,73.63
2023-01-30T06:36:15.151Z,74.34
2023-01-30T06:38:43.033Z,73.79
2023-01-30T06:41:10.895Z,73.74
2023-01-30T06:43:38.865Z,73.89
2023-01-30T06:46:06.952Z,73.63
2023-01-30T06:48:33.872Z,74.50
2023-01-30T06:51:01.712Z,74.83
2023-01-30T06:53:32.390Z,75.13
2023-01-30T06:56:02.099Z,74.65
2023-01-30T06:58:29.963Z,74.06
2023-01-30T07:00:57.872Z,73.69
2023-01-30T07:03:25.882Z,73.64
2023-01-30T07:05:52.993Z,73.95
2023-01-30T07:08:22.589Z,73.63
2023-01-30T07:10:51.898Z,73.68
2023-01-30T07:13:20.018Z,73.25
2023-01-30T07:15:48.091Z,73.24
2023-01-30T07:18:15.151Z,72.93
2023-01-30T07:20:42.720Z,73.52
2023-01-30T07:23:11.743Z,74.04
2023-01-30T07:25:39.680Z,74.50
2023-01-30T07:28:10.325Z,74.20
2023-01-30T07:30:37.376Z,73.71
2023-01-30T07:33:07.361Z,74.16
2023-01-30T07:35:37.667Z,73.96
2023-01-30T07:38:06.111Z,74.43
2023-01-30T07:40:33.307Z,74.35
2023-01-30T07:43:07.540Z,74.66
2023-01-30T07:45:38.885Z,74.50
2023-01-30T07:48:10.081Z,74.61
2023-01-30T07:50:39.744Z,73.97
2023-01-30T07:53:11.505Z,73.56
2023-01-30T07:55:41.442Z,73.49
2023-01-30T07:58:14.995Z,72.64
2023-01-30T08:00:43.185Z,73.00
2023-01-30T08:03:15.121Z,73.19
2023-01-30T08:05:47.845Z,72.87
2023-01-30T08:08:16.148Z,72.44
2023-01-30T08:10:44.973Z,72.66
2023-01-30T08:13:12.022Z,72.54
2023-01-30T08:15:39.175Z,72.28
2023-01-30T08:18:09.935Z,71.48
2023-01-30T08:20:37.444Z,70.85
2023-01-30T08:23:07.043Z,70.68
2023-01-30T08:25:35.578Z,70.13
2023-01-30T08:28:05.384Z,68.93
2023-01-30T08:30:35.186Z,68.48
2023-01-30T08:33:02.180Z,67.99
2023-01-30T08:35:29.062Z,67.82
2023-01-30T08:37:56.816Z,68.30
2023-01-30T08:40:24.701Z,67.65
2023-01-30T08:42:51.757Z,68.11
2023-01-30T08:45:18.591Z,68.83
2023-01-30T08:47:48.119Z,67.99
2023-01-30T08:50:17.596Z,66.54
2023-01-30T08:52:45.508Z,66.48
2023-01-30T08:55:13.492Z,67.17
2023-01-30T08:57:42.492Z,65.77
2023-01-30T09:00:10.477Z,65.84
2023-01-30T09:02:38.226Z,65.41
2023-01-30T09:05:07.052Z,64.42
2023-01-30T09:07:34.861Z,64.39
2023-01-30T09:10:02.947Z,64.11
2023-01-30T09:12:33.389Z,63.67
2023-01-30T09:15:01.404Z,63.90
2023-01-30T09:17:29.371Z,63.41
2023-01-30T09:19:56.965Z,63.16
2023-01-30T09:22:29.448Z,63.10
2023-01-30T09:24:59.169Z,62.84
2023-01-30T09:27:26.596Z,62.71
2023-01-30T09:29:53.466Z,63.16
2023-01-30T09:32:21.465Z,62.33
2023-01-30T09:34:48.549Z,63.01
2023-01-30T09:37:16.387Z,63.18
2023-01-30T09:39:43.188Z,62.23
2023-01-30T09:42:35.942Z,63.68
2023-01-30T09:45:40.155Z,63.85
2023-01-30T09:48:21.227Z,63.67
2023-01-30T09:51:27.630Z,63.56
2023-01-30T09:54:14.255Z,64.32
2023-01-30T09:56:42.197Z,64.14
2023-01-30T09:59:40.782Z,63.68
2023-01-30T10:02:09.508Z,63.83
2023-01-30T10:04:59.935Z,62.72
2023-01-30T10:07:52.870Z,62.12
2023-01-30T10:10:55.059Z,62.23
2023-01-30T10:13:30.837Z,63.57
2023-01-30T10:16:16.269Z,62.14
2023-01-30T10:19:34.661Z,61.69
2023-01-30T10:22:48.267Z,59.96
2023-01-30T10:25:29.348Z,58.64
2023-01-30T10:28:04.555Z,58.31
2023-01-30T10:30:34.806Z,58.57
2023-01-30T10:33:30.460Z,58.81
2023-01-30T10:36:18.759Z,58.91
2023-01-30T10:38:50.015Z,58.93
2023-01-30T10:41:28.902Z,59.09
2023-01-30T10:44:04.765Z,59.57
2023-01-30T10:46:43.751Z,61.32
2023-01-30T10:49:44.848Z,60.64
2023-01-30T10:52:22.242Z,60.69
2023-01-30T10:54:56.499Z,60.69
2023-01-30T10:57:51.346Z,60.78
2023-01-30T11:00:53.066Z,60.96
2023-01-30T11:03:33.305Z,61.69
2023-01-30T11:06:12.053Z,60.86
2023-01-30T11:08:40.212Z,61.30
2023-01-30T11:11:31.410Z,62.12
2023-01-30T11:14:12.743Z,61.31
2023-01-30T11:16:54.339Z,60.85
2023-01-30T11:19:31.173Z,61.33
2023-01-30T11:22:03.176Z,60.99
2023-01-30T11:24:40.491Z,61.31
2023-01-30T11:27:29.473Z,62.45
2023-01-30T11:30:33.602Z,62.65
2023-01-30T11:33:18.086Z,63.87
2023-01-30T11:35:57.240Z,64.01
2023-01-30T11:38:31.366Z,63.42
2023-01-30T11:41:10.044Z,63.73
2023-01-30T11:43:40.027Z,63.18
2023-01-30T11:46:10.624Z,62.91
2023-01-30T11:49:09.104Z,63.08
2023-01-30T11:51:49.394Z,62.09
2023-01-30T11:54:21.240Z,60.99
2023-01-30T11:56:57.548Z,60.33
2023-01-30T11:59:42.763Z,58.42
2023-01-30T12:02:26.861Z,56.71
2023-01-30T12:05:07.089Z,57.20
2023-01-30T12:07:37.363Z,55.25
2023-01-30T12:10:29.161Z,55.46
2023-01-30T12:13:16.247Z,57.40
2023-01-30T12:15:45.748Z,59.93
2023-01-30T12:18:45.747Z,59.22
2023-01-30T12:21:44.146Z,59.98
2023-01-30T12:24:36.430Z,59.93
2023-01-30T12:27:46.371Z,58.21
2023-01-30T12:30:29.034Z,58.60
2023-01-30T12:36:03.231Z,57.69
2023-01-30T12:38:44.912Z,56.90
2023-01-30T12:41:18.445Z,57.31
2023-01-30T12:44:21.624Z,58.55
2023-01-30T12:47:15.388Z,60.35
2023-01-30T12:50:07.149Z,59.98
2023-01-30T12:53:04.448Z,60.42
2023-01-30T12:55:43.784Z,60.35
2023-01-30T12:58:29.013Z,60.46
2023-01-30T13:01:13.796Z,61.69
2023-01-30T13:03:58.616Z,61.75
2023-01-30T13:06:50.830Z,62.70
2023-01-30T13:09:30.629Z,63.78
2023-01-30T13:12:29.181Z,63.74
2023-01-30T13:15:08.517Z,63.83
2023-01-30T13:18:15.840Z,63.77
2023-01-30T13:21:04.967Z,63.96
2023-01-30T13:24:15.830Z,63.10
2023-01-30T13:26:45.821Z,63.61
2023-01-30T13:29:26.538Z,63.55
2023-01-30T13:32:00.397Z,63.40
2023-01-30T13:34:36.142Z,63.50
2023-01-30T13:37:11.049Z,63.24
2023-01-30T13:39:52.692Z,63.95
2023-01-30T13:42:49.968Z,64.02
2023-01-30T13:45:27.433Z,63.19
2023-01-30T13:48:36.507Z,63.43
2023-01-30T13:51:25.554Z,62.82
2023-01-30T13:53:57.791Z,63.21
2023-01-30T13:56:41.371Z,62.88
2023-01-30T13:59:47.560Z,63.41
2023-01-30T14:02:17.652Z,63.84
2023-01-30T14:04:48.065Z,63.63
2023-01-30T14:07:23.044Z,63.26
2023-01-30T14:09:52.618Z,63.40
2023-01-30T14:12:25.831Z,62.33
2023-01-30T14:15:07.390Z,61.90
2023-01-30T14:17:34.447Z,61.86
2023-01-30T14:20:17.812Z,61.58
2023-01-30T14:22:55.980Z,62.13
2023-01-30T14:25:22.860Z,62.42
2023-01-30T14:27:52.876Z,63.41
2023-01-30T14:31:00.755Z,63.81
2023-01-30T14:33:33.165Z,64.21
2023-01-30T14:36:00.951Z,63.73
2023-01-30T14:38:33.933Z,63.51
2023-01-30T14:41:00.940Z,64.20
2023-01-30T14:43:41.788Z,63.87
2023-01-30T14:46:20.609Z,63.41
2023-01-30T14:48:54.459Z,63.83
2023-01-30T14:51:22.273Z,64.95
2023-01-30T14:53:59.805Z,65.52
2023-01-30T14:56:49.931Z,65.68
2023-01-30T14:59:17.688Z,65.35
2023-01-30T15:02:03.404Z,65.49
2023-01-30T15:04:33.057Z,65.53
2023-01-30T15:07:06.010Z,65.61
2023-01-30T15:09:33.847Z,66.05
2023-01-30T15:12:19.305Z,65.68
2023-01-30T15:15:08.048Z,65.88
2023-01-30T15:18:08.445Z,66.15
2023-01-30T15:20:55.417Z,66.56
2023-01-30T15:23:51.130Z,66.49
2023-01-30T15:26:25.198Z,66.16
2023-01-30T15:29:17.043Z,67.08
2023-01-30T15:32:15.024Z,67.43
2023-01-30T15:34:58.590Z,68.82
2023-01-30T15:37:36.820Z,69.30
2023-01-30T15:40:16.149Z,70.68
2023-01-30T15:42:45.963Z,71.13
2023-01-30T15:45:35.058Z,71.93
2023-01-30T15:48:23.409Z,72.02
2023-01-30T15:50:57.665Z,71.32
2023-01-30T15:53:31.184Z,71.65
2023-01-30T15:56:02.017Z,71.66
2023-01-30T15:58:31.631Z,71.42
2023-01-30T16:01:00.956Z,71.47
2023-01-30T16:03:36.836Z,71.71
2023-01-30T16:06:03.929Z,71.79
2023-01-30T16:08:34.876Z,71.94
2023-01-30T16:11:03.035Z,72.04
2023-01-30T16:13:30.695Z,71.49
2023-01-30T16:16:13.368Z,71.68
2023-01-30T16:18:47.559Z,72.27
2023-01-30T16:21:34.463Z,72.88
2023-01-30T16:24:12.840Z,72.70
2023-01-30T16:26:46.647Z,73.03
2023-01-30T16:29:19.343Z,72.57
2023-01-30T16:31:49.116Z,72.67
2023-01-30T16:34:31.583Z,72.88
2023-01-30T16:37:19.234Z,73.28
2023-01-30T16:40:10.932Z,72.61
2023-01-30T16:42:38.232Z,72.34
2023-01-30T16:45:32.932Z,73.31
2023-01-30T16:48:18.648Z,73.29
2023-01-30T16:50:48.973Z,72.92
2023-01-30T16:53:22.631Z,72.91
2023-01-30T16:56:10.307Z,72.51
2023-01-30T16:58:39.097Z,72.95
2023-01-30T17:01:08.671Z,72.59
2023-01-30T17:03:43.575Z,73.84
2023-01-30T17:06:40.150Z,73.30
2023-01-30T17:09:46.101Z,73.33
2023-01-30T17:12:26.840Z,72.52
2023-01-30T17:15:09.236Z,72.42
2023-01-30T17:17:36.911Z,71.01
2023-01-30T17:20:05.291Z,71.09
2023-01-30T17:22:33.864Z,70.31
2023-01-30T17:25:17.642Z,69.66
2023-01-30T17:27:45.721Z,69.93
2023-01-30T17:30:19.171Z,70.64
2023-01-30T17:32:47.722Z,70.05
2023-01-30T17:35:16.279Z,69.34
2023-01-30T17:37:48.438Z,68.29
2023-01-30T17:40:24.964Z,67.90
2023-01-30T17:42:52.071Z,67.25
2023-01-30T17:45:21.115Z,69.36
2023-01-30T17:47:49.859Z,69.69
2023-01-30T17:50:17.857Z,71.41
2023-01-30T17:52:46.026Z,72.23
2023-01-30T17:55:14.273Z,71.93
2023-01-30T17:57:43.326Z,71.23
2023-01-30T18:00:17.369Z,70.73
2023-01-30T18:02:46.571Z,70.49
2023-01-30T18:05:14.065Z,71.28
2023-01-30T18:07:43.201Z,71.04
2023-01-30T18:10:20.285Z,71.24
2023-01-30T18:12:47.598Z,71.36
2023-01-30T18:15:16.440Z,71.17
2023-01-30T18:17:49.955Z,70.85
2023-01-30T18:20:20.525Z,70.99
2023-01-30T18:22:48.972Z,74.17
2023-01-30T18:25:17.728Z,75.65
2023-01-30T18:27:47.677Z,75.67
2023-01-30T18:30:17.593Z,74.83
2023-01-30T18:32:52.846Z,74.11
2023-01-30T18:35:22.936Z,74.86
2023-01-30T18:37:59.355Z,75.30
2023-01-30T18:40:28.515Z,74.83
2023-01-30T18:42:55.618Z,74.74
2023-01-30T18:45:23.027Z,75.91
2023-01-30T18:47:50.219Z,75.12
2023-01-30T18:50:18.735Z,74.20
2023-01-30T18:52:48.489Z,73.82
2023-01-30T18:55:15.496Z,73.07
2023-01-30T18:57:45.280Z,72.54
2023-01-30T19:00:12.810Z,71.96
2023-01-30T19:02:40.292Z,72.30
2023-01-30T19:05:17.998Z,72.10
2023-01-30T19:07:49.020Z,72.13
2023-01-30T19:10:18.540Z,72.16
2023-01-30T19:13:08.490Z,72.62
2023-01-30T19:15:48.559Z,73.02
2023-01-30T19:18:16.294Z,73.06
2023-01-30T19:20:49.766Z,72.26
2023-01-30T19:23:38.428Z,72.44
2023-01-30T19:26:07.030Z,71.89
2023-01-30T19:28:36.609Z,71.01
2023-01-30T19:31:08.632Z,70.24
2023-01-30T19:33:38.790Z,69.91
2023-01-30T19:36:12.808Z,69.85
2023-01-30T19:38:42.125Z,69.14
2023-01-30T19:41:19.006Z,69.16
2023-01-30T19:43:49.414Z,68.77
2023-01-30T19:46:19.081Z,69.35
2023-01-30T19:48:49.902Z,69.99
2023-01-30T19:51:21.943Z,69.60
2023-01-30T19:53:54.282Z,68.92
2023-01-30T19:56:23.131Z,69.75
2023-01-30T19:58:52.978Z,69.87
2023-01-30T20:01:27.270Z,69.97
2023-01-30T20:03:56.555Z,70.29
2023-01-30T20:06:28.335Z,70.61
2023-01-30T20:09:00.489Z,70.84
2023-01-30T20:11:30.145Z,72.23
2023-01-30T20:14:01.618Z,69.94
2023-01-30T20:16:31.503Z,67.54
2023-01-30T20:19:11.181Z,69.25
2023-01-30T20:21:40.278Z,70.25
2023-01-30T20:24:12.432Z,72.28
2023-01-30T20:26:40.459Z,72.78
2023-01-30T20:29:10.050Z,73.12
2023-01-30T20:31:39.430Z,73.60
2023-01-30T20:34:11.202Z,73.40
2023-01-30T20:36:38.215Z,73.30
2023-01-30T20:39:07.578Z,73.67
2023-01-30T20:41:37.420Z,73.27
2023-01-30T20:44:08.108Z,72.83
2023-01-30T20:46:42.759Z,73.03
2023-01-30T20:49:23.729Z,73.29
2023-01-30T20:51:53.732Z,73.15
2023-01-30T20:54:23.167Z,73.25
2023-01-30T20:56:53.461Z,73.79
2023-01-30T20:59:24.639Z,73.32
2023-01-30T21:01:53.139Z,74.21
2023-01-30T21:04:21.806Z,73.83
2023-01-30T21:06:49.004Z,73.89
2023-01-30T21:09:25.261Z,73.57
2023-01-30T21:11:53.478Z,73.57
2023-01-30T21:14:22.047Z,73.82
2023-01-30T21:16:49.309Z,73.98
2023-01-30T21:19:17.806Z,74.81
2023-01-30T21:21:54.592Z,74.45
2023-01-30T21:24:27.743Z,73.28
2023-01-30T21:26:55.891Z,72.91
2023-01-30T21:29:28.027Z,72.92
2023-01-30T21:31:57.380Z,73.31
2023-01-30T21:34:24.519Z,73.38
2023-01-30T21:37:14.802Z,74.46
2023-01-30T21:40:00.398Z,72.86
2023-01-30T21:42:46.185Z,73.56
2023-01-30T21:45:13.128Z,73.57
2023-01-30T21:47:42.439Z,73.68
2023-01-30T21:50:10.994Z,73.60
2023-01-30T21:52:38.107Z,74.25
2023-01-30T21:55:05.558Z,74.64
2023-01-30T21:57:33.440Z,74.73
2023-01-30T22:00:00.565Z,74.43
2023-01-30T22:02:28.552Z,73.12
2023-01-30T22:04:56.771Z,73.99
2023-01-30T22:07:23.989Z,74.20
2023-01-30T22:09:51.297Z,73.91
2023-01-30T22:12:19.350Z,74.76
2023-01-30T22:14:47.047Z,75.04
2023-01-30T22:17:14.240Z,75.92
2023-01-30T22:19:41.239Z,75.08
2023-01-30T22:22:11.065Z,75.10
2023-01-30T22:24:39.657Z,74.85
2023-01-30T22:27:10.031Z,74.32
2023-01-30T22:29:37.354Z,73.92
2023-01-30T22:32:04.707Z,73.51
2023-01-30T22:34:34.288Z,73.49
2023-01-30T22:37:05.323Z,72.84
2023-01-30T22:39:34.989Z,72.82
2023-01-30T22:42:03.103Z,72.50
2023-01-30T22:44:30.831Z,72.15
2023-01-30T22:46:58.700Z,72.08
2023-01-30T22:49:26.531Z,71.76
2023-01-30T22:51:54.874Z,71.49
2023-01-30T22:54:24.847Z,71.10
2023-01-30T22:56:52.754Z,71.09
2023-01-30T22:59:19.882Z,71.00
2023-01-30T23:01:50.761Z,71.16
2023-01-30T23:04:20.536Z,71.16
2023-01-30T23:06:48.657Z,71.79
2023-01-30T23:09:18.921Z,71.99
2023-01-30T23:12:09.322Z,71.64
2023-01-30T23:14:37.087Z,71.42
2023-01-30T23:17:24.576Z,71.58
2023-01-30T23:19:53.039Z,71.40
2023-01-30T23:22:19.939Z,71.12
2023-01-30T23:24:48.684Z,70.69
2023-01-30T23:27:16.465Z,70.77
2023-01-30T23:29:43.286Z,70.58
2023-01-30T23:32:10.306Z,70.72
2023-01-30T23:34:37.722Z,70.74
2023-01-30T23:37:04.795Z,72.26
2023-01-30T23:39:32.480Z,72.39
2023-01-30T23:41:59.531Z,72.45
2023-01-30T23:44:27.314Z,72.39
2023-01-30T23:46:54.364Z,73.06
2023-01-30T23:49:21.433Z,73.81
2023-01-30T23:51:49.224Z,73.45
2023-01-30T23:54:16.277Z,73.94
2023-01-30T23:56:45.356Z,74.09
2023-01-30T23:59:12.593Z,74.28
